Terminal Aerodrome Forecast
Issued by NWS

Current Version | Previous Version | Text Only | Print | Product List | Glossary Off
Versions: 1 2 3 4 5 6 7 8 9 10 11 12 13 14 15

000
FTUS41 KILN 271700 RRA
TAFLCK
TAF
KLCK 271741Z 2718/2818 05006KT P6SM FEW150 BKN250
     FM280000 06003KT P6SM SCT250
     FM281700 08005KT P6SM FEW050=

USA.gov is the U.S. government's official web portal to all federal, state and local government web resources and services.